Main page
METAR-TAF:

METAR-TAF

Airports :

Flamingo International Airport

Bonaire, Netherlands Antilles

latitude: 12-09N, longitude: 068-17W, elevation: 6 m

Current weather observation

The report was made 1 hour and 7 minutes ago, at 23:55 UTC
Wind 15 kt from the East/Northeast
Temperature 29°C
Humidity 79%
Pressure 1011 hPa
Visibility 10 km or more
Few clouds at a height of 1500 ft
Scattered clouds at a height of 1800 ft

METAR: TNCB 232355Z 07015KT 9999 FEW015 SCT018 29/25 Q1011

Time: 21:02 (01:02 UTC)

Forecast

The report was made 1 hour and 48 minutes ago, at 23:14 UTC
Forecast valid from 24 at 00 UTC to 25 at 06 UTC
Wind 15 kt from the East
Visibility 10 km or more
Scattered clouds at a height of 1800 ft
Probability 30% :
Temporary
from 24 at 09 UTC to 24 at 13 UTC
Visibility: 4000 m
Scattered clouds at a height of 1500 ft, Cumulonimbus.
rain showers,

TAF: TNCB 232314Z 2400/2506 09015KT 9999 SCT018 PROB30 TEMPO 2409/2413 4000 SHRA SCT015CB

Weather observations and forecasts of more than 4000 airports (METAR and TAF reports).

The available stations are represented by yellow and red dots on the map.

Hover mouse over dot to see the name of the station.

Then click to see weather observations and forecasts.

To change the map : click on the green buttons with a black cross to zoom in, on the green button with a dash to zoom out, or on the green arrows for adjacent maps.


METAR-TAF: